Time;durP1;ratioP1;P1;durP2;ratioP2;P2;SDS_P1;SDS_P2;PMS_P1;PMS_P2;Temp;Humidity;BMP_temperature;BMP_pressure;BME280_temperature;BME280_humidity;BME280_pressure;Samples;Min_cycle;Max_cycle;Signal;HPM_P1;HPM_P2
2021/12/14 00:00:54;;;;;;;22.55;12.18;;;;;;;0.53;74.37;102045.30;1676834;84;28483;-60
2021/12/14 00:03:26;;;;;;;22.80;12.75;;;;;;;0.58;74.30;102046.89;1676422;84;25785;-60
2021/12/14 00:05:55;;;;;;;27.48;13.38;;;;;;;0.60;74.27;102042.43;1632270;87;26523;-60
2021/12/14 00:08:23;;;;;;;24.15;12.28;;;;;;;0.55;74.00;102048.31;1665220;83;25833;-60
2021/12/14 00:16:07;;;;;;;22.82;12.70;;;;;;;0.49;74.38;102049.80;1609435;87;25773;-60
2021/12/14 00:18:34;;;;;;;28.42;13.83;;;;;;;0.56;74.30;102051.38;1605526;87;25849;-60
2021/12/14 00:21:09;;;;;;;26.37;13.68;;;;;;;0.57;74.20;102049.16;1610307;87;25800;-60
2021/12/14 00:26:24;;;;;;;25.88;12.40;;;;;;;0.65;74.30;102050.25;1663602;84;27490;-60
2021/12/14 00:28:51;;;;;;;24.98;13.22;;;;;;;0.71;74.17;102053.20;1661436;85;25840;-60
2021/12/14 00:31:21;;;;;;;24.47;13.30;;;;;;;0.72;73.96;102052.30;1665617;84;25791;-60
2021/12/14 00:33:52;;;;;;;24.85;12.73;;;;;;;0.72;74.07;102057.12;1609205;86;25850;-60
2021/12/14 00:36:21;;;;;;;23.20;12.25;;;;;;;0.76;73.92;102060.59;1641411;84;25865;-60
2021/12/14 00:38:54;;;;;;;23.65;12.82;;;;;;;0.72;73.77;102070.36;1659417;84;27453;-60
2021/12/14 00:41:23;;;;;;;24.45;12.43;;;;;;;0.70;73.61;102078.83;1659697;85;25832;-60
2021/12/14 00:43:50;;;;;;;24.18;12.20;;;;;;;0.66;73.79;102076.30;1665592;84;25836;-59
2021/12/14 00:46:17;;;;;;;19.77;11.65;;;;;;;0.65;73.78;102075.88;1696189;84;25814;-59
2021/12/14 00:48:46;;;;;;;21.60;12.10;;;;;;;0.64;73.57;102081.61;1678316;84;25673;-59
2021/12/14 00:51:20;;;;;;;21.30;12.58;;;;;;;0.64;73.77;102079.44;1662402;84;27544;-59
2021/12/14 00:53:46;;;;;;;26.87;12.63;;;;;;;0.60;73.76;102085.27;1660995;84;25779;-59
2021/12/14 00:56:13;;;;;;;26.77;13.43;;;;;;;0.53;73.72;102081.90;1664821;84;25788;-59
2021/12/14 00:58:45;;;;;;;26.20;12.63;;;;;;;0.46;73.79;102081.18;1647834;85;25784;-59
2021/12/14 01:01:26;;;;;;;26.27;13.83;;;;;;;0.42;73.89;102084.83;1657222;85;26847;-59
2021/12/14 01:03:58;;;;;;;21.73;12.75;;;;;;;0.41;74.09;102076.91;1651572;85;27908;-59
2021/12/14 01:06:30;;;;;;;26.10;12.60;;;;;;;0.42;74.21;102083.94;1644306;86;25966;-59
2021/12/14 01:08:57;;;;;;;26.95;13.22;;;;;;;0.35;74.17;102083.25;1641620;86;25826;-59
2021/12/14 01:11:35;;;;;;;25.90;13.18;;;;;;;0.32;74.44;102081.98;1671407;83;25777;-59
2021/12/14 01:14:16;;;;;;;24.98;13.32;;;;;;;0.29;74.45;102077.65;1658520;85;25759;-59
2021/12/14 01:16:52;;;;;;;30.52;14.23;;;;;;;0.23;74.64;102077.77;1684570;84;27456;-59
2021/12/14 01:19:25;;;;;;;;;;;;;;;0.20;74.85;102071.25;1690326;84;25695;-60
2021/12/14 01:25:02;;;;;;;23.60;12.98;;;;;;;0.18;74.89;102070.41;1676221;84;25784;-60
2021/12/14 01:27:49;;;;;;;28.02;13.90;;;;;;;0.14;75.10;102066.09;1678994;84;25791;-60
2021/12/14 01:30:24;;;;;;;26.93;14.28;;;;;;;0.18;75.14;102069.55;1680612;84;28202;-60
2021/12/14 01:32:53;;;;;;;25.77;14.25;;;;;;;0.16;75.17;102064.28;1674876;84;26528;-60
2021/12/14 01:35:28;;;;;;;30.45;14.55;;;;;;;0.12;75.25;102057.34;1664039;84;25682;-60
2021/12/14 01:38:01;;;;;;;24.25;13.00;;;;;;;0.14;75.32;102059.47;1678283;84;25750;-60
2021/12/14 01:40:53;;;;;;;22.62;12.25;;;;;;;0.13;75.18;102066.55;1636753;86;25779;-60
2021/12/14 01:43:15;;;;;;;27.35;14.38;;;;;;;0.13;75.28;102065.23;1676392;84;27794;-60
2021/12/14 01:45:44;;;;;;;25.48;12.63;;;;;;;0.11;75.26;102072.33;1651765;85;25836;-60
2021/12/14 01:48:17;;;;;;;26.75;13.78;;;;;;;0.13;75.23;102069.67;1641716;84;25806;-60
2021/12/14 01:50:53;;;;;;;27.48;13.80;;;;;;;0.18;75.14;102070.88;1640937;84;26589;-60
2021/12/14 01:53:26;;;;;;;26.87;13.72;;;;;;;0.16;75.03;102066.92;1636465;85;26333;-60
2021/12/14 01:56:00;;;;;;;26.87;13.80;;;;;;;0.18;75.16;102063.80;1634568;85;27477;-60
2021/12/14 01:58:38;;;;;;;23.22;13.28;;;;;;;0.26;75.12;102059.65;1644068;85;25744;-60
2021/12/14 02:01:20;;;;;;;22.67;12.25;;;;;;;0.36;75.10;102061.60;1649085;84;25726;-60
2021/12/14 02:03:53;;;;;;;24.82;13.72;;;;;;;0.35;74.60;102068.69;1675978;84;26436;-59
2021/12/14 02:06:28;;;;;;;24.72;13.70;;;;;;;0.36;74.68;102060.28;1678711;84;25925;-59
2021/12/14 02:09:00;;;;;;;26.75;13.62;;;;;;;0.36;74.24;102061.13;1661574;84;27491;-60
2021/12/14 02:11:34;;;;;;;23.98;13.75;;;;;;;0.35;74.44;102059.42;1665929;85;25759;-60
2021/12/14 02:14:03;;;;;;;25.25;13.32;;;;;;;0.36;74.41;102059.81;1670004;84;25811;-60
2021/12/14 02:16:31;;;;;;;26.50;13.35;;;;;;;0.38;74.41;102061.97;1666261;85;26628;-60
2021/12/14 02:19:07;;;;;;;25.55;13.53;;;;;;;0.42;74.41;102058.79;1666209;85;25695;-60
2021/12/14 02:21:37;;;;;;;25.90;13.90;;;;;;;0.43;74.19;102075.09;1660231;84;27499;-59
2021/12/14 02:24:08;;;;;;;27.35;14.30;;;;;;;0.34;74.13;102076.65;1656129;85;25732;-60
2021/12/14 02:26:39;;;;;;;29.35;14.63;;;;;;;0.33;74.35;102076.23;1639478;84;25891;-60
2021/12/14 02:29:10;;;;;;;24.98;13.43;;;;;;;0.33;74.38;102077.55;1633438;86;25786;-60
2021/12/14 02:31:41;;;;;;;28.67;14.93;;;;;;;0.28;74.24;102077.23;1629495;86;25834;-60
2021/12/14 02:34:09;;;;;;;27.60;12.50;;;;;;;0.30;74.29;102082.47;1609359;88;27494;-60
2021/12/14 02:36:43;;;;;;;29.27;14.38;;;;;;;0.31;74.39;102081.10;1687462;83;25753;-60
2021/12/14 02:39:46;;;;;;;25.15;13.35;;;;;;;0.29;74.17;102088.67;1679164;83;25757;-60
2021/12/14 02:41:57;;;;;;;28.25;14.75;;;;;;;0.27;74.25;102088.72;1673763;84;26467;-60
2021/12/14 02:44:26;;;;;;;27.77;14.05;;;;;;;0.28;74.32;102089.14;1681745;83;25736;-61
2021/12/14 02:46:58;;;;;;;30.25;16.57;;;;;;;0.22;74.39;102091.94;1681265;83;27466;-60
2021/12/14 02:49:31;;;;;;;29.75;13.98;;;;;;;0.23;74.56;102091.01;1667245;85;25817;-61
2021/12/14 02:52:03;;;;;;;30.82;14.05;;;;;;;0.23;74.25;102099.42;1686776;84;25859;-60
2021/12/14 02:54:53;;;;;;;31.90;15.72;;;;;;;0.25;74.30;102095.81;1666348;85;25823;-61
2021/12/14 02:57:27;;;;;;;29.63;14.35;;;;;;;0.21;74.20;102098.58;1679461;84;25757;-60
2021/12/14 02:59:56;;;;;;;27.50;13.50;;;;;;;0.18;74.39;102099.53;1683617;84;27494;-61
2021/12/14 03:02:28;;;;;;;26.42;13.62;;;;;;;0.18;74.35;102102.64;1649583;85;25901;-61
2021/12/14 03:05:03;;;;;;;27.77;14.58;;;;;;;0.19;74.35;102099.95;1625604;86;25971;-61
2021/12/14 03:07:43;;;;;;;28.90;15.03;;;;;;;0.17;74.42;102099.10;1623133;87;25814;-61
2021/12/14 03:12:50;;;;;;;33.15;15.95;;;;;;;0.12;74.63;102101.00;1653929;85;27493;-61
2021/12/14 03:15:28;;;;;;;33.67;15.88;;;;;;;0.12;74.58;102102.33;1676242;83;25868;-60
2021/12/14 03:18:07;;;;;;;28.47;14.23;;;;;;;0.09;74.66;102103.71;1676920;84;25559;-60
2021/12/14 03:20:45;;;;;;;29.42;14.90;;;;;;;0.10;74.64;102096.19;1680663;84;26860;-60
2021/12/14 03:23:30;;;;;;;33.28;15.80;;;;;;;0.07;74.59;102097.14;1665147;85;25822;-61
2021/12/14 03:26:05;;;;;;;28.40;14.55;;;;;;;0.10;74.66;102108.10;1662973;85;27557;-60
2021/12/14 03:28:34;;;;;;;27.80;15.50;;;;;;;0.08;74.56;102113.44;1664218;84;26052;-61
2021/12/14 03:31:12;;;;;;;29.23;15.23;;;;;;;0.10;74.77;102110.75;1665006;84;25782;-61
2021/12/14 03:33:46;;;;;;;29.55;15.05;;;;;;;0.10;74.76;102105.45;1642128;86;25842;-61
2021/12/14 03:36:23;;;;;;;27.45;14.45;;;;;;;0.19;74.80;102113.61;1642932;86;25934;-60
2021/12/14 03:39:01;;;;;;;31.75;15.28;;;;;;;0.23;74.49;102109.53;1661701;84;27499;-60
2021/12/14 03:41:34;;;;;;;31.45;16.40;;;;;;;0.23;74.17;102116.16;1649162;84;25655;-60
2021/12/14 03:44:14;;;;;;;25.32;14.65;;;;;;;0.28;74.35;102121.34;1660867;84;25922;-60
2021/12/14 03:46:54;;;;;;;30.57;15.45;;;;;;;0.29;74.04;102118.67;1661310;84;26382;-61
2021/12/14 03:49:28;;;;;;;27.85;14.68;;;;;;;0.24;73.88;102115.25;1639510;86;25683;-60
2021/12/14 03:51:56;;;;;;;35.48;15.20;;;;;;;0.29;74.08;102119.11;1658647;84;27493;-60
2021/12/14 03:54:25;;;;;;;24.72;13.20;;;;;;;0.30;73.93;102119.53;1664923;84;25457;-59
2021/12/14 03:56:54;;;;;;;29.60;15.68;;;;;;;0.28;73.92;102114.28;1665465;84;25832;-59
2021/12/14 03:59:32;;;;;;;27.13;14.30;;;;;;;0.31;73.84;102120.81;1661506;84;26462;-60
2021/12/14 04:02:02;;;;;;;30.40;15.43;;;;;;;0.28;73.51;102128.84;1646336;86;25724;-59
2021/12/14 04:04:38;;;;;;;33.00;15.03;;;;;;;0.25;73.54;102125.40;1590173;87;27540;-60
2021/12/14 04:07:10;;;;;;;29.30;14.03;;;;;;;0.20;73.64;102124.19;1650072;86;25764;-59
2021/12/14 04:09:41;;;;;;;26.73;14.25;;;;;;;0.12;73.61;102125.67;1643711;85;36237;-59
2021/12/14 04:12:16;;;;;;;28.98;14.75;;;;;;;0.08;73.88;102124.45;1644422;86;25837;-60
2021/12/14 04:14:48;;;;;;;25.72;13.68;;;;;;;0.13;74.03;102123.92;1643422;85;26161;-60
2021/12/14 04:17:18;;;;;;;26.70;14.25;;;;;;;0.15;74.05;102127.38;1626364;87;28333;-60
2021/12/14 04:19:46;;;;;;;28.02;13.45;;;;;;;0.09;73.86;102136.78;1630332;87;25797;-60
2021/12/14 04:22:18;;;;;;;31.93;15.18;;;;;;;0.05;73.90;102139.06;1632428;84;25894;-59
2021/12/14 04:24:50;;;;;;;30.30;14.28;;;;;;;0.10;74.12;102140.70;1661574;84;25807;-59
2021/12/14 04:27:25;;;;;;;24.40;14.38;;;;;;;0.15;74.14;102144.58;1660511;85;25878;-59
2021/12/14 04:29:55;;;;;;;30.90;15.93;;;;;;;0.18;73.90;102149.81;1665209;85;28606;-59
2021/12/14 04:32:26;;;;;;;30.97;15.75;;;;;;;0.14;73.84;102155.63;1669676;83;25967;-60
2021/12/14 04:34:56;;;;;;;28.95;15.32;;;;;;;0.09;73.83;102149.55;1689126;84;25755;-60
2021/12/14 04:37:24;;;;;;;31.68;15.58;;;;;;;0.10;73.96;102160.55;1671910;83;25883;-60
2021/12/14 04:40:10;;;;;;;30.23;15.70;;;;;;;0.10;73.91;102158.38;1646177;85;25922;-60
2021/12/14 04:53:53;;;;;;;37.45;17.57;;;;;;;0.10;74.11;102171.61;1681872;84;25799;-59
2021/12/14 04:56:27;;;;;;;31.45;16.25;;;;;;;0.12;73.84;102177.75;1673235;84;27496;-59
2021/12/14 04:59:02;;;;;;;28.50;16.67;;;;;;;0.06;73.85;102177.42;1668289;84;25815;-59
2021/12/14 05:01:37;;;;;;;36.25;18.12;;;;;;;0.09;73.99;102178.66;1672331;84;25821;-59
2021/12/14 05:04:12;;;;;;;33.58;17.73;;;;;;;0.06;73.86;102180.07;1666000;84;25790;-59
2021/12/14 05:06:53;;;;;;;34.65;16.30;;;;;;;0.03;73.99;102189.85;1661362;85;25726;-60
2021/12/14 05:09:29;;;;;;;30.17;18.00;;;;;;;0.03;74.16;102179.27;1673859;84;27526;-59
2021/12/14 05:12:10;;;;;;;;;;;;;;;0.04;74.33;102184.52;1673455;84;26084;-60
2021/12/14 05:14:43;;;;;;;45.28;25.08;;;;;;;0.01;74.20;102181.07;1686569;84;25837;-60
2021/12/14 05:17:15;;;;;;;43.40;19.35;;;;;;;0.00;74.12;102173.59;1662251;84;26418;-60
2021/12/14 05:19:45;;;;;;;35.35;18.20;;;;;;;-0.05;74.20;102181.64;1666901;84;25956;-60
2021/12/14 05:22:20;;;;;;;37.23;16.87;;;;;;;-0.04;74.34;102175.41;1658925;84;27476;-60
2021/12/14 05:24:53;;;;;;;35.08;16.42;;;;;;;0.03;74.34;102181.91;1687175;84;25840;-60
2021/12/14 05:27:27;;;;;;;30.40;15.58;;;;;;;0.02;74.16;102173.55;1678767;84;26391;-60
2021/12/14 05:30:21;;;;;;;29.82;16.23;;;;;;;0.02;74.14;102171.77;1681865;84;26213;-60
2021/12/14 05:33:04;;;;;;;38.45;18.90;;;;;;;0.04;74.13;102174.40;1659628;84;25531;-60
2021/12/14 05:35:37;;;;;;;33.30;17.10;;;;;;;0.06;74.19;102169.92;1659281;84;27505;-60
2021/12/14 05:38:12;;;;;;;36.93;17.67;;;;;;;0.07;74.16;102175.20;1665109;84;25903;-60
2021/12/14 05:41:10;;;;;;;34.73;17.20;;;;;;;0.06;73.88;102171.24;1663293;84;25456;-60
2021/12/14 05:43:16;;;;;;;34.23;17.65;;;;;;;0.01;73.97;102185.89;1642344;84;26106;-60
2021/12/14 05:45:56;;;;;;;36.20;17.12;;;;;;;-0.06;73.92;102181.64;1651465;85;25821;-60
2021/12/14 05:48:31;;;;;;;43.85;18.80;;;;;;;-0.06;74.12;102193.55;1644094;85;27562;-60
2021/12/14 05:51:07;;;;;;;44.70;19.70;;;;;;;-0.11;74.16;102184.39;1653318;86;25862;-61
2021/12/14 05:53:44;;;;;;;37.05;18.87;;;;;;;-0.08;74.29;102184.77;1616247;86;25936;-60
2021/12/14 05:56:20;;;;;;;38.45;17.48;;;;;;;-0.07;74.28;102193.13;1640199;86;26498;-61
2021/12/14 05:58:56;;;;;;;38.50;16.97;;;;;;;-0.10;74.26;102186.60;1646298;85;25844;-60
2021/12/14 06:01:29;;;;;;;38.53;19.40;;;;;;;-0.14;74.00;102190.20;1645807;86;27482;-61
2021/12/14 06:04:05;;;;;;;38.15;19.87;;;;;;;-0.13;74.12;102198.55;1668422;84;25538;-61
2021/12/14 06:06:38;;;;;;;35.05;16.45;;;;;;;-0.14;74.25;102204.75;1659081;84;25824;-61
2021/12/14 06:09:12;;;;;;;;;;;;;;;-0.13;74.27;102202.06;1638495;85;26031;-61
2021/12/14 06:11:46;;;;;;;33.98;17.95;;;;;;;-0.12;74.45;102205.12;1637865;85;25934;-60
2021/12/14 06:14:21;;;;;;;39.90;17.65;;;;;;;-0.08;74.35;102206.82;1651677;85;28171;-60
2021/12/14 06:16:53;;;;;;;34.80;19.17;;;;;;;-0.04;74.41;102208.48;1641630;86;25881;-60
2021/12/14 06:19:41;;;;;;;40.65;18.37;;;;;;;-0.03;74.29;102209.37;1645170;86;25910;-61
2021/12/14 06:22:15;;;;;;;46.23;22.05;;;;;;;-0.02;74.19;102208.47;1640291;85;25871;-61
2021/12/14 06:24:49;;;;;;;39.50;17.55;;;;;;;0.04;74.22;102212.77;1642483;86;25871;-60
2021/12/14 06:27:24;;;;;;;39.75;17.70;;;;;;;0.07;74.06;102209.59;1651243;85;26908;-60
2021/12/14 06:29:56;;;;;;;40.78;17.77;;;;;;;0.07;73.91;102211.36;1634835;86;25831;-61
2021/12/14 06:32:28;;;;;;;39.63;19.00;;;;;;;0.10;73.96;102213.95;1683242;83;25856;-61
2021/12/14 06:35:10;;;;;;;37.48;18.90;;;;;;;0.07;73.69;102221.51;1660465;84;25804;-61
2021/12/14 06:40:36;;;;;;;43.98;19.75;;;;;;;0.17;74.05;102214.69;1656373;85;27701;-60
2021/12/14 06:43:09;;;;;;;38.17;19.37;;;;;;;0.13;73.67;102220.05;1611168;85;25831;-60
2021/12/14 06:45:44;;;;;;;40.40;20.48;;;;;;;0.18;73.70;102229.20;1660315;85;25816;-60
2021/12/14 06:48:20;;;;;;;40.67;21.10;;;;;;;0.10;73.13;102227.18;1657205;86;25824;-61
2021/12/14 06:51:26;;;;;;;35.15;18.37;;;;;;;0.07;73.37;102223.27;1656243;86;25737;-61
2021/12/14 06:54:01;;;;;;;39.88;18.77;;;;;;;0.07;73.32;102224.59;1676381;84;27484;-61
2021/12/14 06:56:40;;;;;;;39.67;18.77;;;;;;;0.06;73.41;102227.70;1657060;84;25804;-60
2021/12/14 06:59:22;;;;;;;45.83;18.50;;;;;;;0.07;73.19;102228.55;1656997;84;25777;-60
2021/12/14 07:02:10;;;;;;;46.53;20.97;;;;;;;0.06;73.30;102238.28;1647857;85;25869;-60
2021/12/14 07:04:51;;;;;;;40.73;21.05;;;;;;;0.10;73.53;102235.12;1619523;86;25844;-60
2021/12/14 07:07:25;;;;;;;34.83;20.20;;;;;;;0.15;73.56;102237.20;1640251;85;28216;-60
2021/12/14 07:10:01;;;;;;;45.92;20.48;;;;;;;0.24;73.58;102236.14;1667206;84;25751;-60
2021/12/14 07:12:40;;;;;;;39.15;19.02;;;;;;;0.36;73.85;102248.23;1674701;84;25822;-61
2021/12/14 07:15:26;;;;;;;41.65;19.48;;;;;;;0.45;73.39;102252.86;1671631;84;25843;-61
2021/12/14 07:18:03;;;;;;;49.53;23.62;;;;;;;0.43;73.01;102246.75;1629535;85;25731;-61
2021/12/14 07:20:46;;;;;;;43.52;22.13;;;;;;;0.41;72.80;102245.02;1633744;86;27525;-61
2021/12/14 07:23:32;;;;;;;42.13;21.75;;;;;;;0.42;72.80;102242.80;1626291;86;25858;-60
2021/12/14 07:26:12;;;;;;;48.58;25.37;;;;;;;0.41;72.80;102251.20;1636131;85;25775;-60
2021/12/14 07:28:45;;;;;;;46.25;21.00;;;;;;;0.48;72.70;102248.41;1638095;86;26456;-60
2021/12/14 07:31:18;;;;;;;44.42;20.43;;;;;;;0.57;72.98;102251.73;1649034;85;25750;-60
2021/12/14 07:33:57;;;;;;;49.00;20.23;;;;;;;0.59;72.49;102237.98;1658410;84;28371;-60
2021/12/14 07:36:29;;;;;;;48.65;19.48;;;;;;;0.69;72.14;102245.72;1647178;83;25814;-60
2021/12/14 07:39:01;;;;;;;38.35;17.82;;;;;;;0.75;72.25;102245.12;1647938;85;25806;-60
2021/12/14 07:41:33;;;;;;;42.62;21.23;;;;;;;0.74;71.65;102250.47;1670461;84;25878;-60
2021/12/14 07:44:18;;;;;;;44.67;20.37;;;;;;;0.82;72.00;102248.51;1674854;84;25681;-60
2021/12/14 07:46:53;;;;;;;40.20;19.12;;;;;;;0.92;71.97;102243.41;1645009;85;27451;-60
2021/12/14 07:49:34;;;;;;;38.63;17.57;;;;;;;0.99;71.70;102241.45;1643480;85;25962;-60
2021/12/14 07:52:09;;;;;;;37.85;17.30;;;;;;;1.04;71.66;102241.34;1625946;85;26529;-60
2021/12/14 07:54:44;;;;;;;35.33;17.15;;;;;;;1.11;71.56;102233.67;1642436;85;25886;-60
2021/12/14 07:57:23;;;;;;;34.27;17.07;;;;;;;1.14;71.00;102242.00;1661942;83;26007;-60
2021/12/14 08:00:01;;;;;;;37.08;16.52;;;;;;;1.16;71.04;102237.53;1686732;84;27519;-61
2021/12/14 08:02:40;;;;;;;39.42;18.82;;;;;;;1.19;69.97;102242.30;1685842;83;25764;-60
2021/12/14 08:05:24;;;;;;;38.15;16.23;;;;;;;1.16;70.35;102235.74;1632854;87;25484;-60
2021/12/14 08:08:03;;;;;;;;;;;;;;;1.16;70.11;102237.53;1637118;85;25813;-60
2021/12/14 08:10:37;;;;;;;34.33;16.80;;;;;;;1.15;70.37;102233.14;1645245;85;25637;-60
2021/12/14 08:13:21;;;;;;;31.85;16.35;;;;;;;1.13;69.96;102229.65;1589797;89;27425;-60
2021/12/14 08:15:53;;;;;;;34.58;16.60;;;;;;;1.13;69.76;102234.95;1606524;88;26052;-60
2021/12/14 08:18:25;;;;;;;34.83;16.35;;;;;;;1.09;70.03;102235.02;1638854;85;25739;-59
2021/12/14 08:21:08;;;;;;;34.35;17.55;;;;;;;1.11;70.27;102231.02;1631801;85;25997;-59
2021/12/14 08:23:40;;;;;;;36.68;17.17;;;;;;;1.13;70.36;102225.20;1656549;84;25845;-60
2021/12/14 08:26:18;;;;;;;50.70;18.73;;;;;;;1.17;70.29;102233.51;1650312;85;27440;-60
2021/12/14 08:28:53;;;;;;;30.55;15.80;;;;;;;1.21;70.43;102223.70;1654523;85;25927;-61
2021/12/14 08:31:25;;;;;;;34.73;15.55;;;;;;;1.27;70.08;102222.20;1663008;84;25649;-60
2021/12/14 08:34:03;;;;;;;35.00;16.48;;;;;;;1.25;70.13;102222.25;1660684;84;26647;-59
2021/12/14 08:36:39;;;;;;;33.55;16.87;;;;;;;1.29;70.19;102219.53;1661332;84;25822;-60
2021/12/14 08:39:18;;;;;;;29.57;16.65;;;;;;;1.34;70.01;102216.28;1633592;84;27589;-60
2021/12/14 08:41:53;;;;;;;33.30;16.32;;;;;;;1.33;69.94;102215.87;1655141;85;25856;-59
2021/12/14 08:44:22;;;;;;;37.28;17.30;;;;;;;1.38;70.08;102207.35;1680594;84;25880;-60
2021/12/14 08:46:51;;;;;;;34.08;16.90;;;;;;;1.36;69.62;102210.49;1666644;83;25916;-60
2021/12/14 08:49:21;;;;;;;32.03;17.07;;;;;;;1.37;69.77;102206.47;1660582;84;25799;-59
2021/12/14 08:51:50;;;;;;;34.10;15.45;;;;;;;1.36;69.42;102207.84;1644766;85;27478;-59
2021/12/14 08:54:26;;;;;;;37.58;18.52;;;;;;;1.30;69.14;102197.41;1652977;85;25866;-60
2021/12/14 08:57:00;;;;;;;35.05;16.97;;;;;;;1.29;69.41;102196.99;1646231;85;25809;-60
2021/12/14 08:59:29;;;;;;;36.33;16.97;;;;;;;1.33;69.75;102195.98;1643255;84;25946;-60
2021/12/14 09:01:59;;;;;;;30.15;15.78;;;;;;;1.36;69.56;102190.61;1663691;84;25509;-59
2021/12/14 09:04:37;;;;;;;30.52;15.30;;;;;;;1.31;69.35;102193.38;1612215;85;28707;-61
2021/12/14 09:07:15;;;;;;;33.85;17.20;;;;;;;1.38;69.50;102182.16;1640295;86;25810;-60
2021/12/14 09:09:43;;;;;;;33.53;16.40;;;;;;;1.41;69.24;102182.06;1670219;84;25726;-60
2021/12/14 09:12:18;;;;;;;34.38;17.15;;;;;;;1.37;68.97;102173.79;1667780;84;25828;-60
2021/12/14 09:14:49;;;;;;;33.48;16.25;;;;;;;1.36;69.19;102171.58;1651221;86;25735;-59
2021/12/14 09:17:21;;;;;;;31.00;16.27;;;;;;;1.41;69.25;102164.82;1650221;85;28245;-61
2021/12/14 09:20:02;;;;;;;31.75;16.42;;;;;;;1.48;69.26;102165.05;1672679;84;25839;-60
2021/12/14 09:22:34;;;;;;;32.05;16.93;;;;;;;1.60;68.93;102162.54;1657945;84;25834;-60
2021/12/14 09:25:05;;;;;;;32.10;16.45;;;;;;;1.65;68.29;102159.76;1641497;85;27454;-61
2021/12/14 09:27:35;;;;;;;32.35;15.75;;;;;;;1.63;68.25;102160.25;1643932;84;25871;-60
2021/12/14 09:30:05;;;;;;;36.25;16.23;;;;;;;1.66;68.22;102151.74;1651578;85;28179;-61
2021/12/14 09:32:34;;;;;;;30.00;16.35;;;;;;;1.76;68.35;102140.86;1663122;84;25797;-61
2021/12/14 09:35:07;;;;;;;41.35;18.77;;;;;;;1.76;67.95;102139.06;1654950;84;25841;-61
2021/12/14 09:37:34;;;;;;;34.33;17.37;;;;;;;1.75;67.66;102141.30;1657431;85;26444;-61
2021/12/14 09:40:07;;;;;;;32.38;15.90;;;;;;;1.82;68.08;102139.34;1654218;85;25876;-61
2021/12/14 09:42:36;;;;;;;26.77;14.95;;;;;;;1.87;67.77;102133.45;1640834;86;27601;-61
2021/12/14 09:45:12;;;;;;;29.90;16.67;;;;;;;1.87;67.73;102142.75;1652740;86;25749;-60
2021/12/14 09:47:40;;;;;;;33.13;15.38;;;;;;;1.87;67.75;102139.62;1668299;83;25720;-61
2021/12/14 09:50:12;;;;;;;36.00;16.27;;;;;;;1.80;67.23;102137.19;1670917;84;25884;-61
2021/12/14 09:52:43;;;;;;;29.87;15.85;;;;;;;1.76;67.38;102144.37;1652191;84;25913;-61
2021/12/14 09:55:18;;;;;;;33.90;15.35;;;;;;;1.79;67.70;102139.45;1671338;84;27433;-60
2021/12/14 09:57:50;;;;;;;31.10;15.72;;;;;;;1.79;67.44;102138.13;1649008;84;26537;-60
2021/12/14 10:00:23;;;;;;;33.48;15.40;;;;;;;1.86;67.96;102136.55;1630109;86;25964;-60
2021/12/14 10:02:55;;;;;;;32.35;15.63;;;;;;;1.91;67.70;102140.86;1640698;85;26878;-61
2021/12/14 10:05:39;;;;;;;30.05;16.05;;;;;;;1.98;67.58;102135.30;1641037;85;25957;-61
2021/12/14 10:08:15;;;;;;;33.05;17.80;;;;;;;2.05;67.71;102135.14;1641406;86;27468;-60
2021/12/14 10:10:40;;;;;;;33.65;16.75;;;;;;;2.12;67.99;102130.04;1642808;86;25860;-60
2021/12/14 10:13:07;;;;;;;34.40;16.82;;;;;;;2.17;67.86;102134.30;1659658;84;26598;-60
2021/12/14 10:15:42;;;;;;;35.75;16.65;;;;;;;2.15;67.29;102136.13;1639282;85;25798;-61
2021/12/14 10:18:17;;;;;;;32.67;16.77;;;;;;;2.14;67.29;102137.03;1630982;87;25927;-61
2021/12/14 10:21:01;;;;;;;30.45;16.00;;;;;;;2.19;67.28;102136.89;1632994;86;28340;-60
2021/12/14 10:23:31;;;;;;;28.20;15.70;;;;;;;2.22;66.93;102134.15;1637225;85;25993;-60
2021/12/14 10:25:59;;;;;;;32.48;15.30;;;;;;;2.27;66.96;102122.91;1644412;85;26045;-60
2021/12/14 10:28:30;;;;;;;29.63;15.23;;;;;;;2.30;66.84;102118.84;1660825;85;25905;-60
2021/12/14 10:31:03;;;;;;;36.03;16.40;;;;;;;2.39;66.02;102120.31;1652095;85;25786;-60
2021/12/14 10:33:32;;;;;;;30.12;15.83;;;;;;;2.34;66.39;102118.28;1661941;85;27494;-60
2021/12/14 10:36:15;;;;;;;35.23;17.23;;;;;;;2.35;66.34;102112.05;1662633;85;25800;-60
2021/12/14 10:39:00;;;;;;;30.10;16.00;;;;;;;2.34;66.02;102120.94;1647239;84;25945;-60
2021/12/14 10:44:06;;;;;;;27.85;14.38;;;;;;;2.39;66.66;102113.67;1561659;91;26141;-60
2021/12/14 10:46:40;;;;;;;29.95;16.20;;;;;;;2.40;66.28;102112.76;1563132;90;27498;-60
2021/12/14 10:49:07;;;;;;;29.85;16.17;;;;;;;2.48;66.55;102118.69;1590036;85;26375;-60
2021/12/14 10:51:39;;;;;;;33.15;15.88;;;;;;;2.48;66.53;102113.84;1658637;86;25792;-60
2021/12/14 10:54:12;;;;;;;35.73;16.37;;;;;;;2.51;66.33;102116.38;1678743;84;26504;-60
2021/12/14 10:56:52;;;;;;;29.48;14.35;;;;;;;2.61;66.15;102105.00;1681852;84;25990;-60
2021/12/14 10:59:24;;;;;;;28.83;13.80;;;;;;;2.80;65.22;102116.75;1657068;84;27545;-60
2021/12/14 11:01:53;;;;;;;27.93;13.83;;;;;;;3.11;64.81;102105.50;1654569;86;25489;-60
2021/12/14 11:04:39;;;;;;;27.05;14.83;;;;;;;3.93;63.38;102105.09;1672899;83;25897;-60
2021/12/14 11:07:14;;;;;;;27.32;14.05;;;;;;;4.02;62.04;102103.40;1668809;84;26551;-60
2021/12/14 11:09:45;;;;;;;28.10;14.47;;;;;;;3.85;61.83;102106.75;1635435;86;25863;-60
2021/12/14 11:12:35;;;;;;;29.20;14.28;;;;;;;3.66;62.22;102115.03;1642928;85;27468;-60
2021/12/14 11:15:10;;;;;;;38.50;16.23;;;;;;;3.65;63.03;102119.94;1657903;85;25765;-59
2021/12/14 11:20:32;;;;;;;25.27;13.25;;;;;;;3.66;63.28;102105.23;1668069;84;26592;-60
2021/12/14 11:23:13;;;;;;;30.85;13.88;;;;;;;3.51;62.74;102099.17;1669316;84;25794;-60
2021/12/14 11:26:03;;;;;;;28.62;14.50;;;;;;;3.34;62.83;102102.45;1666884;84;28132;-60
2021/12/14 11:28:38;;;;;;;28.40;15.00;;;;;;;3.27;63.41;102091.19;1679062;84;25948;-59
2021/12/14 11:31:32;;;;;;;29.27;14.85;;;;;;;3.18;63.86;102097.70;1661875;84;25846;-59
2021/12/14 11:34:08;;;;;;;31.27;14.15;;;;;;;3.26;63.97;102095.63;1602245;87;25835;-59
2021/12/14 11:37:02;;;;;;;27.00;13.93;;;;;;;3.44;64.34;102093.20;1593325;88;25711;-59
2021/12/14 11:39:32;;;;;;;31.17;16.32;;;;;;;3.76;64.43;102084.00;1619732;86;27516;-59
2021/12/14 11:42:07;;;;;;;33.67;15.05;;;;;;;4.27;63.68;102080.24;1660231;85;25533;-59
2021/12/14 11:44:39;;;;;;;34.15;16.50;;;;;;;4.65;62.30;102084.44;1633521;87;25856;-59
2021/12/14 11:47:41;;;;;;;41.28;19.55;;;;;;;4.65;61.62;102086.63;1629641;86;26459;-59
2021/12/14 11:49:55;;;;;;;33.58;17.60;;;;;;;4.53;61.11;102093.80;1630294;85;25921;-59
2021/12/14 11:52:51;;;;;;;28.75;15.53;;;;;;;4.33;60.79;102090.19;1612808;86;27548;-59
2021/12/14 11:55:36;;;;;;;33.55;15.75;;;;;;;4.06;61.75;102095.70;1631066;85;26041;-59
2021/12/14 11:58:30;;;;;;;32.58;16.42;;;;;;;3.84;61.71;102101.46;1630482;87;25847;-59
2021/12/14 12:01:20;;;;;;;35.25;17.02;;;;;;;3.53;61.78;102100.84;1634272;87;25865;-59
2021/12/14 12:04:16;;;;;;;30.27;16.15;;;;;;;3.29;62.60;102095.52;1635968;86;26164;-59
2021/12/14 12:09:47;;;;;;;36.23;15.80;;;;;;;2.90;63.63;102095.17;1616376;85;25816;-58
2021/12/14 12:12:30;;;;;;;35.65;16.82;;;;;;;2.79;63.98;102083.12;1656365;84;25792;-59
2021/12/14 12:15:09;;;;;;;33.08;16.00;;;;;;;2.61;64.52;102083.27;1631814;85;27976;-59
2021/12/14 12:17:51;;;;;;;37.53;15.75;;;;;;;2.59;64.89;102084.25;1649177;85;25884;-59
2021/12/14 12:20:38;;;;;;;34.65;15.50;;;;;;;2.49;65.58;102082.38;1643916;85;27464;-59
2021/12/14 12:23:16;;;;;;;30.35;16.50;;;;;;;2.52;65.76;102087.57;1651268;86;26466;-59
2021/12/14 12:26:08;;;;;;;30.52;16.35;;;;;;;2.42;65.65;102080.86;1630761;86;26519;-60
2021/12/14 12:28:40;;;;;;;34.18;16.50;;;;;;;2.35;66.08;102084.16;1655022;84;25913;-59